This is the latest recevied weather packets stored in our database for station/object EA3CH. If no packets are shown the sender has not sent any weather packets the latest 10 day(s).
| Time | Temp. | Humidity | Pressure | Rain* | Wind** | Luminosity | Snow |
|---|---|---|---|---|---|---|---|
| 1788055203 | 15.56° C | 95% | 1019.6 hPa | 0 mm | - | 0 W/m² | - |
| 1788054303 | 15.56° C | 93% | 1019.6 hPa | 0 mm | - | 0 W/m² | - |
| 1788053406 | 16.11° C | 83% | 1019.5 hPa | 0 mm | - | 0 W/m² | - |
| 1788053406 | 16.11° C | 93% | 1019.7 hPa | 0 mm | - | 0 W/m² | - |
| 1788052504 | 15.56° C | 94% | 1019.6 hPa | 0 mm | - | 0 W/m² | - |
| 1788051606 | 16.67° C | 85% | 1019.6 hPa | 0 mm | - | 0 W/m² | - |
| 1788051604 | 16.11° C | 96% | 1019.7 hPa | 0 mm | - | 0 W/m² | - |
| 1788050705 | 16.11° C | 85% | 1019.6 hPa | 0 mm | - | 0 W/m² | - |
| 1788049804 | 15.56° C | 97% | 1019.9 hPa | 0 mm | - | 0 W/m² | - |
| 1788048905 | 16.11° C | 87% | 1019.7 hPa | 0 mm | - | 0 W/m² | - |
| 1788048903 | 15.56° C | 97% | 1020 hPa | 0 mm | - | 0 W/m² | - |
| 1788048004 | 15.56° C | 97% | 1020 hPa | 0 mm | - | 0 W/m² | - |
| 1788047103 | 16.11° C | 96% | 1020.2 hPa | 0 mm | - | 0 W/m² | - |
| 1788046204 | 16.11° C | 96% | 1020.2 hPa | 0 mm | - | 0 W/m² | - |
| 1788045304 | 16.67° C | 94% | 1020.2 hPa | 0 mm | - | 0 W/m² | - |
| 1788044403 | 17.22° C | 94% | 1020.2 hPa | 0 mm | - | 0 W/m² | - |
| 1788043504 | 17.22° C | 94% | 1020.1 hPa | 0 mm | - | 0 W/m² | - |
| 1788042604 | 17.78° C | 93% | 1020 hPa | 0 mm | - | 0 W/m² | - |
| 1788041703 | 18.33° C | 94% | 1020 hPa | 0 mm | - | 0 W/m² | - |
| 1788040805 | 18.33° C | 95% | 1019.9 hPa | 0 mm | - | 0 W/m² | - |
| 1788039917 | 19.44° C | 82% | 1019.7 hPa | 0 mm | - | 0 W/m² | - |
| 1788039917 | 18.33° C | 94% | 1019.9 hPa | 0 mm | - | 0 W/m² | - |
| 1788039006 | 19.44° C | 81% | 1019.7 hPa | 0 mm | - | 0 W/m² | - |
| 1788039003 | 18.89° C | 93% | 1020 hPa | 0 mm | - | 0 W/m² | - |
| 1788038105 | 19.44° C | 81% | 1019.8 hPa | 0 mm | - | 0 W/m² | - |
* Rain latest hour (hover to see other rain measurements)
** Current wind speed in m/s (hover to see current wind gust speed)